Impacts TAF Board INFO
FOR SITUATIONAL AWARENESS. NOT TO BE USED FOR FLIGHT PLANNING PURPOSES.
IDs:

KMIA - Miami Intl, FL, US

Issued at 0539 UTC 17 Dec 2017
Updated at 0804 UTC 17 Dec 2017
Potential Impact None Slight Moderate High
Time0753Z 17/09Z 17/10Z 17/11Z 17/12Z 17/13Z 17/14Z 17/15Z 17/16Z 17/17Z 17/18Z 17/19Z 17/20Z 17/21Z>>
Type OBS PRVL PRVL PRVL PRVL PRVL PRVL PRVL PRVL PRVL PRVL PRVL PRVL PRVL
VIS 10 >6 >6 >6 >6 >6 >6 >6 >6 >6 >6 >6 >6 >6
CIG 250 -- -- -- -- -- -- 250 250 250 250 250 250 250
Cover BKN SCT SCT SCT SCT SCT SCT BKN BKN BKN BKN BKN BKN BKN
FltCat VFR VFR VFR VFR VFR VFR VFR VFR VFR VFR VFR VFR VFR VFR
WX -- -- -- -- -- -- -- -- -- -- -- -- -- --
WDir VRB 70 70 70 70 70 70 100 100 100 100 100 100 100
WSpd 0 5 5 5 5 5 5 10 10 10 10 10 10 10
WGst -- -- -- -- -- -- -- -- -- -- -- -- -- --

Raw TAF
KMIA 170539Z 1706/1812 07005KT P6SM FEW035 SCT250
  FM171500 10010KT P6SM SCT030 BKN250
  FM180000 09006KT P6SM FEW025 SCT050 SCT250


Raw METAR
KMIA 170753Z 00000KT 10SM FEW032 SCT050 BKN250 21/18 A3019 RMK AO2 SLP222 T02060178
KMIA 170653Z 00000KT 10SM SCT032 BKN250 21/17 A3020 RMK AO2 SLP225 T02110172
KMIA 170553Z 05003KT 10SM FEW035 BKN250 22/17 A3020 RMK AO2 SLP228 T02220172 10233 20194 58003

METAR Board
Radar Display
Forecast Discussion

FOR SITUATIONAL AWARENESS. NOT TO BE USED FOR FLIGHT PLANNING PURPOSES.